sensor_id;sensor_type;location;lat;lon;timestamp;temperature;humidity
14985;DHT22;7588;62.368;25.902;2022-07-05T00:01:51;14.00;99.90
14985;DHT22;7588;62.368;25.902;2022-07-05T00:04:17;14.00;99.90
14985;DHT22;7588;62.368;25.902;2022-07-05T00:06:43;13.90;99.90
14985;DHT22;7588;62.368;25.902;2022-07-05T00:09:27;13.80;99.90
14985;DHT22;7588;62.368;25.902;2022-07-05T00:11:53;13.70;99.90
14985;DHT22;7588;62.368;25.902;2022-07-05T00:14:19;13.60;99.90
14985;DHT22;7588;62.368;25.902;2022-07-05T00:16:44;13.60;99.90
14985;DHT22;7588;62.368;25.902;2022-07-05T00:19:10;13.60;99.90
14985;DHT22;7588;62.368;25.902;2022-07-05T00:21:36;13.50;99.90
14985;DHT22;7588;62.368;25.902;2022-07-05T00:24:02;13.50;99.90
14985;DHT22;7588;62.368;25.902;2022-07-05T00:26:28;13.50;99.90
14985;DHT22;7588;62.368;25.902;2022-07-05T00:28:54;13.40;99.90
14985;DHT22;7588;62.368;25.902;2022-07-05T00:31:20;13.40;99.90
14985;DHT22;7588;62.368;25.902;2022-07-05T00:33:45;13.50;99.90
14985;DHT22;7588;62.368;25.902;2022-07-05T00:36:11;13.40;99.90
14985;DHT22;7588;62.368;25.902;2022-07-05T00:38:37;13.40;99.90
14985;DHT22;7588;62.368;25.902;2022-07-05T00:41:02;13.40;99.90
14985;DHT22;7588;62.368;25.902;2022-07-05T00:43:28;13.50;99.90
14985;DHT22;7588;62.368;25.902;2022-07-05T00:45:54;13.60;99.90
14985;DHT22;7588;62.368;25.902;2022-07-05T00:48:20;13.60;99.90
14985;DHT22;7588;62.368;25.902;2022-07-05T00:50:46;13.70;99.90
14985;DHT22;7588;62.368;25.902;2022-07-05T00:53:12;13.70;99.90
14985;DHT22;7588;62.368;25.902;2022-07-05T00:55:38;13.70;99.90
14985;DHT22;7588;62.368;25.902;2022-07-05T00:58:05;13.70;99.90
14985;DHT22;7588;62.368;25.902;2022-07-05T01:00:31;13.70;99.90
14985;DHT22;7588;62.368;25.902;2022-07-05T01:02:56;13.70;99.90
14985;DHT22;7588;62.368;25.902;2022-07-05T01:05:22;13.90;99.90
14985;DHT22;7588;62.368;25.902;2022-07-05T01:07:48;14.00;99.90
14985;DHT22;7588;62.368;25.902;2022-07-05T01:10:14;14.10;99.90
14985;DHT22;7588;62.368;25.902;2022-07-05T01:12:40;14.20;99.90
14985;DHT22;7588;62.368;25.902;2022-07-05T01:15:07;14.20;99.90
14985;DHT22;7588;62.368;25.902;2022-07-05T01:17:35;14.30;99.90
14985;DHT22;7588;62.368;25.902;2022-07-05T01:20:04;14.30;99.90
14985;DHT22;7588;62.368;25.902;2022-07-05T01:22:53;14.30;99.90
14985;DHT22;7588;62.368;25.902;2022-07-05T01:25:21;14.40;99.90
14985;DHT22;7588;62.368;25.902;2022-07-05T01:27:48;14.50;99.90
14985;DHT22;7588;62.368;25.902;2022-07-05T01:30:15;14.50;99.90
14985;DHT22;7588;62.368;25.902;2022-07-05T01:32:41;14.50;99.90
14985;DHT22;7588;62.368;25.902;2022-07-05T01:35:08;14.60;99.90
14985;DHT22;7588;62.368;25.902;2022-07-05T01:37:33;14.60;99.90
14985;DHT22;7588;62.368;25.902;2022-07-05T01:40:03;14.60;99.90
14985;DHT22;7588;62.368;25.902;2022-07-05T01:42:28;14.50;99.90
14985;DHT22;7588;62.368;25.902;2022-07-05T01:44:54;14.50;99.90
14985;DHT22;7588;62.368;25.902;2022-07-05T01:47:21;14.40;99.90
14985;DHT22;7588;62.368;25.902;2022-07-05T01:49:48;14.30;99.90
14985;DHT22;7588;62.368;25.902;2022-07-05T01:52:16;14.30;99.90
14985;DHT22;7588;62.368;25.902;2022-07-05T01:54:42;14.20;99.90
14985;DHT22;7588;62.368;25.902;2022-07-05T01:57:09;14.20;99.90
14985;DHT22;7588;62.368;25.902;2022-07-05T01:59:36;14.10;99.90
14985;DHT22;7588;62.368;25.902;2022-07-05T02:02:03;14.10;99.90
14985;DHT22;7588;62.368;25.902;2022-07-05T02:04:29;14.10;99.90
14985;DHT22;7588;62.368;25.902;2022-07-05T02:06:56;14.10;99.90
14985;DHT22;7588;62.368;25.902;2022-07-05T02:09:21;14.10;99.90
14985;DHT22;7588;62.368;25.902;2022-07-05T02:11:47;14.10;99.90
14985;DHT22;7588;62.368;25.902;2022-07-05T02:14:13;14.10;99.90
14985;DHT22;7588;62.368;25.902;2022-07-05T02:16:39;14.20;99.90
14985;DHT22;7588;62.368;25.902;2022-07-05T02:19:05;14.10;99.90
14985;DHT22;7588;62.368;25.902;2022-07-05T02:21:30;14.10;99.90
14985;DHT22;7588;62.368;25.902;2022-07-05T02:23:56;14.10;99.90
14985;DHT22;7588;62.368;25.902;2022-07-05T02:26:22;14.10;99.90
14985;DHT22;7588;62.368;25.902;2022-07-05T02:28:48;14.10;99.90
14985;DHT22;7588;62.368;25.902;2022-07-05T02:31:14;14.00;99.90
14985;DHT22;7588;62.368;25.902;2022-07-05T02:33:42;14.00;99.90
14985;DHT22;7588;62.368;25.902;2022-07-05T02:36:08;14.00;99.90
14985;DHT22;7588;62.368;25.902;2022-07-05T02:38:34;14.00;99.90
14985;DHT22;7588;62.368;25.902;2022-07-05T02:41:00;14.00;99.90
14985;DHT22;7588;62.368;25.902;2022-07-05T02:43:26;13.90;99.90
14985;DHT22;7588;62.368;25.902;2022-07-05T02:45:52;13.90;99.90
14985;DHT22;7588;62.368;25.902;2022-07-05T02:48:17;13.90;99.90
14985;DHT22;7588;62.368;25.902;2022-07-05T02:50:43;13.90;99.90
14985;DHT22;7588;62.368;25.902;2022-07-05T02:53:10;13.90;99.90
14985;DHT22;7588;62.368;25.902;2022-07-05T02:55:36;13.90;99.90
14985;DHT22;7588;62.368;25.902;2022-07-05T02:58:02;14.00;99.90
14985;DHT22;7588;62.368;25.902;2022-07-05T03:00:28;14.10;99.90
14985;DHT22;7588;62.368;25.902;2022-07-05T03:02:53;14.20;99.90
14985;DHT22;7588;62.368;25.902;2022-07-05T03:05:19;14.20;99.90
14985;DHT22;7588;62.368;25.902;2022-07-05T03:07:45;14.40;99.90
14985;DHT22;7588;62.368;25.902;2022-07-05T03:10:10;14.60;99.90
14985;DHT22;7588;62.368;25.902;2022-07-05T03:12:36;14.70;99.90
14985;DHT22;7588;62.368;25.902;2022-07-05T03:15:02;14.80;99.90
14985;DHT22;7588;62.368;25.902;2022-07-05T03:17:28;14.90;99.90
14985;DHT22;7588;62.368;25.902;2022-07-05T03:19:53;15.00;99.90
14985;DHT22;7588;62.368;25.902;2022-07-05T03:22:19;15.10;99.90
14985;DHT22;7588;62.368;25.902;2022-07-05T03:24:45;15.20;99.90
14985;DHT22;7588;62.368;25.902;2022-07-05T03:27:11;15.40;99.90
14985;DHT22;7588;62.368;25.902;2022-07-05T03:29:36;15.50;99.90
14985;DHT22;7588;62.368;25.902;2022-07-05T03:32:02;15.60;99.90
14985;DHT22;7588;62.368;25.902;2022-07-05T03:34:28;15.80;99.90
14985;DHT22;7588;62.368;25.902;2022-07-05T03:36:54;16.10;99.90
14985;DHT22;7588;62.368;25.902;2022-07-05T03:39:20;16.30;99.90
14985;DHT22;7588;62.368;25.902;2022-07-05T03:41:45;16.50;99.90
14985;DHT22;7588;62.368;25.902;2022-07-05T03:44:11;16.60;99.90
14985;DHT22;7588;62.368;25.902;2022-07-05T03:46:37;16.80;99.90
14985;DHT22;7588;62.368;25.902;2022-07-05T03:49:02;17.00;99.90
14985;DHT22;7588;62.368;25.902;2022-07-05T03:51:28;17.20;99.90
14985;DHT22;7588;62.368;25.902;2022-07-05T03:53:54;17.30;99.90
14985;DHT22;7588;62.368;25.902;2022-07-05T03:56:20;17.40;99.90
14985;DHT22;7588;62.368;25.902;2022-07-05T03:58:49;17.60;99.90
14985;DHT22;7588;62.368;25.902;2022-07-05T04:01:15;17.60;99.90
14985;DHT22;7588;62.368;25.902;2022-07-05T04:03:41;17.60;99.90
14985;DHT22;7588;62.368;25.902;2022-07-05T04:06:09;17.70;99.90
14985;DHT22;7588;62.368;25.902;2022-07-05T04:08:35;17.90;99.90
14985;DHT22;7588;62.368;25.902;2022-07-05T04:11:00;18.10;99.90
14985;DHT22;7588;62.368;25.902;2022-07-05T04:13:26;18.30;99.90
14985;DHT22;7588;62.368;25.902;2022-07-05T04:15:52;18.50;99.90
14985;DHT22;7588;62.368;25.902;2022-07-05T04:18:18;18.50;99.90
14985;DHT22;7588;62.368;25.902;2022-07-05T04:20:44;18.70;99.90
14985;DHT22;7588;62.368;25.902;2022-07-05T04:23:10;18.90;99.90
14985;DHT22;7588;62.368;25.902;2022-07-05T04:25:36;19.60;99.90
14985;DHT22;7588;62.368;25.902;2022-07-05T04:28:01;20.00;99.90
14985;DHT22;7588;62.368;25.902;2022-07-05T04:30:28;20.00;99.90
14985;DHT22;7588;62.368;25.902;2022-07-05T04:32:54;20.00;99.90
14985;DHT22;7588;62.368;25.902;2022-07-05T04:35:20;20.00;99.90
14985;DHT22;7588;62.368;25.902;2022-07-05T04:37:46;20.30;99.90
14985;DHT22;7588;62.368;25.902;2022-07-05T04:40:13;20.60;99.90
14985;DHT22;7588;62.368;25.902;2022-07-05T04:42:39;21.40;99.90
14985;DHT22;7588;62.368;25.902;2022-07-05T04:45:06;22.40;99.90
14985;DHT22;7588;62.368;25.902;2022-07-05T04:47:32;23.30;99.90
14985;DHT22;7588;62.368;25.902;2022-07-05T04:49:58;24.10;99.60
14985;DHT22;7588;62.368;25.902;2022-07-05T04:52:24;24.30;94.90
14985;DHT22;7588;62.368;25.902;2022-07-05T04:54:51;24.50;94.70
14985;DHT22;7588;62.368;25.902;2022-07-05T04:57:17;24.80;93.70
14985;DHT22;7588;62.368;25.902;2022-07-05T04:59:43;25.40;90.40
14985;DHT22;7588;62.368;25.902;2022-07-05T05:02:09;25.60;90.10
14985;DHT22;7588;62.368;25.902;2022-07-05T05:04:34;25.60;85.20
14985;DHT22;7588;62.368;25.902;2022-07-05T05:07:00;25.60;85.10
14985;DHT22;7588;62.368;25.902;2022-07-05T05:09:26;25.60;83.80
14985;DHT22;7588;62.368;25.902;2022-07-05T05:11:52;25.80;82.30
14985;DHT22;7588;62.368;25.902;2022-07-05T05:14:18;25.90;80.30
14985;DHT22;7588;62.368;25.902;2022-07-05T05:16:43;26.00;79.50
14985;DHT22;7588;62.368;25.902;2022-07-05T05:19:09;26.30;80.80
14985;DHT22;7588;62.368;25.902;2022-07-05T05:21:35;26.40;77.30
14985;DHT22;7588;62.368;25.902;2022-07-05T05:24:01;26.80;75.60
14985;DHT22;7588;62.368;25.902;2022-07-05T05:26:27;27.00;75.00
14985;DHT22;7588;62.368;25.902;2022-07-05T05:28:52;27.00;75.50
14985;DHT22;7588;62.368;25.902;2022-07-05T05:31:18;26.90;74.50
14985;DHT22;7588;62.368;25.902;2022-07-05T05:33:45;27.00;74.60
14985;DHT22;7588;62.368;25.902;2022-07-05T05:36:10;26.80;75.50
14985;DHT22;7588;62.368;25.902;2022-07-05T05:38:37;26.60;75.10
14985;DHT22;7588;62.368;25.902;2022-07-05T05:41:03;26.50;73.30
14985;DHT22;7588;62.368;25.902;2022-07-05T05:43:29;26.80;73.80
14985;DHT22;7588;62.368;25.902;2022-07-05T05:45:54;26.80;73.50
14985;DHT22;7588;62.368;25.902;2022-07-05T05:48:20;27.40;70.90
14985;DHT22;7588;62.368;25.902;2022-07-05T05:50:47;27.70;69.30
14985;DHT22;7588;62.368;25.902;2022-07-05T05:53:13;27.90;70.60
14985;DHT22;7588;62.368;25.902;2022-07-05T05:55:38;27.80;69.90
14985;DHT22;7588;62.368;25.902;2022-07-05T05:58:18;27.40;70.70
14985;DHT22;7588;62.368;25.902;2022-07-05T06:00:44;26.30;67.90
14985;DHT22;7588;62.368;25.902;2022-07-05T06:03:17;25.20;72.30
14985;DHT22;7588;62.368;25.902;2022-07-05T06:05:43;24.80;76.40
14985;DHT22;7588;62.368;25.902;2022-07-05T06:08:08;25.10;76.50
14985;DHT22;7588;62.368;25.902;2022-07-05T06:10:35;25.90;73.20
14985;DHT22;7588;62.368;25.902;2022-07-05T06:13:06;26.40;71.40
14985;DHT22;7588;62.368;25.902;2022-07-05T06:15:33;26.80;69.80
14985;DHT22;7588;62.368;25.902;2022-07-05T06:17:59;27.30;69.70
14985;DHT22;7588;62.368;25.902;2022-07-05T06:20:27;27.10;71.00
14985;DHT22;7588;62.368;25.902;2022-07-05T06:22:54;27.30;70.70
14985;DHT22;7588;62.368;25.902;2022-07-05T06:25:20;27.30;68.40
14985;DHT22;7588;62.368;25.902;2022-07-05T06:27:49;27.20;69.90
14985;DHT22;7588;62.368;25.902;2022-07-05T06:30:16;27.60;68.40
14985;DHT22;7588;62.368;25.902;2022-07-05T06:32:46;27.60;63.90
14985;DHT22;7588;62.368;25.902;2022-07-05T06:35:13;27.60;63.80
14985;DHT22;7588;62.368;25.902;2022-07-05T06:37:50;27.50;64.30
14985;DHT22;7588;62.368;25.902;2022-07-05T06:40:23;26.80;67.10
14985;DHT22;7588;62.368;25.902;2022-07-05T06:42:50;26.60;65.00
14985;DHT22;7588;62.368;25.902;2022-07-05T06:45:16;26.70;66.60
14985;DHT22;7588;62.368;25.902;2022-07-05T06:47:42;26.40;66.80
14985;DHT22;7588;62.368;25.902;2022-07-05T06:50:09;26.50;68.00
14985;DHT22;7588;62.368;25.902;2022-07-05T06:52:36;26.80;67.00
14985;DHT22;7588;62.368;25.902;2022-07-05T06:55:02;26.80;65.80
14985;DHT22;7588;62.368;25.902;2022-07-05T06:57:28;26.70;65.50
14985;DHT22;7588;62.368;25.902;2022-07-05T06:59:54;26.40;65.80
14985;DHT22;7588;62.368;25.902;2022-07-05T07:02:20;26.10;67.40
14985;DHT22;7588;62.368;25.902;2022-07-05T07:04:47;25.90;69.60
14985;DHT22;7588;62.368;25.902;2022-07-05T07:07:13;25.70;67.80
14985;DHT22;7588;62.368;25.902;2022-07-05T07:10:01;25.40;70.30
14985;DHT22;7588;62.368;25.902;2022-07-05T07:12:27;24.80;71.30
14985;DHT22;7588;62.368;25.902;2022-07-05T07:14:54;24.10;72.50
14985;DHT22;7588;62.368;25.902;2022-07-05T07:17:20;23.90;75.10
14985;DHT22;7588;62.368;25.902;2022-07-05T07:19:46;24.20;76.70
14985;DHT22;7588;62.368;25.902;2022-07-05T07:22:12;24.20;76.20
14985;DHT22;7588;62.368;25.902;2022-07-05T07:24:37;24.00;75.10
14985;DHT22;7588;62.368;25.902;2022-07-05T07:27:04;23.60;75.80
14985;DHT22;7588;62.368;25.902;2022-07-05T07:29:33;23.50;78.30
14985;DHT22;7588;62.368;25.902;2022-07-05T07:32:00;23.30;82.70
14985;DHT22;7588;62.368;25.902;2022-07-05T07:34:27;23.40;79.90
14985;DHT22;7588;62.368;25.902;2022-07-05T07:36:54;23.80;81.90
14985;DHT22;7588;62.368;25.902;2022-07-05T07:39:20;24.60;83.20
14985;DHT22;7588;62.368;25.902;2022-07-05T07:41:46;25.40;78.50
14985;DHT22;7588;62.368;25.902;2022-07-05T07:44:12;26.00;73.80
14985;DHT22;7588;62.368;25.902;2022-07-05T07:46:38;26.00;73.10
14985;DHT22;7588;62.368;25.902;2022-07-05T07:49:10;26.60;71.60
14985;DHT22;7588;62.368;25.902;2022-07-05T07:51:37;27.00;70.50
14985;DHT22;7588;62.368;25.902;2022-07-05T07:54:03;26.70;69.60
14985;DHT22;7588;62.368;25.902;2022-07-05T07:56:29;27.00;71.20
14985;DHT22;7588;62.368;25.902;2022-07-05T07:58:55;27.40;71.70
14985;DHT22;7588;62.368;25.902;2022-07-05T08:01:21;27.50;67.70
14985;DHT22;7588;62.368;25.902;2022-07-05T08:03:47;27.50;68.40
14985;DHT22;7588;62.368;25.902;2022-07-05T08:06:13;27.00;68.80
14985;DHT22;7588;62.368;25.902;2022-07-05T08:08:43;26.10;72.50
14985;DHT22;7588;62.368;25.902;2022-07-05T08:11:10;25.20;74.30
14985;DHT22;7588;62.368;25.902;2022-07-05T08:13:36;24.00;72.70
14985;DHT22;7588;62.368;25.902;2022-07-05T08:16:03;23.30;76.90
14985;DHT22;7588;62.368;25.902;2022-07-05T08:18:29;23.20;77.10
14985;DHT22;7588;62.368;25.902;2022-07-05T08:21:14;23.60;76.10
14985;DHT22;7588;62.368;25.902;2022-07-05T08:23:59;24.20;73.40
14985;DHT22;7588;62.368;25.902;2022-07-05T08:26:26;24.40;73.00
14985;DHT22;7588;62.368;25.902;2022-07-05T08:28:52;23.90;73.30
14985;DHT22;7588;62.368;25.902;2022-07-05T08:31:18;23.50;72.50
14985;DHT22;7588;62.368;25.902;2022-07-05T08:33:44;23.20;72.80
14985;DHT22;7588;62.368;25.902;2022-07-05T08:36:09;23.10;73.60
14985;DHT22;7588;62.368;25.902;2022-07-05T08:38:35;23.00;75.70
14985;DHT22;7588;62.368;25.902;2022-07-05T08:41:02;23.20;78.80
14985;DHT22;7588;62.368;25.902;2022-07-05T08:43:29;23.30;78.70
14985;DHT22;7588;62.368;25.902;2022-07-05T08:45:57;23.50;75.40
14985;DHT22;7588;62.368;25.902;2022-07-05T08:48:24;24.00;75.60
14985;DHT22;7588;62.368;25.902;2022-07-05T08:50:53;24.40;73.90
14985;DHT22;7588;62.368;25.902;2022-07-05T08:53:20;24.70;73.00
14985;DHT22;7588;62.368;25.902;2022-07-05T08:55:46;25.00;73.30
14985;DHT22;7588;62.368;25.902;2022-07-05T08:58:13;25.50;72.90
14985;DHT22;7588;62.368;25.902;2022-07-05T09:00:39;25.80;70.70
14985;DHT22;7588;62.368;25.902;2022-07-05T09:03:06;26.10;72.80
14985;DHT22;7588;62.368;25.902;2022-07-05T09:05:43;26.40;69.50
14985;DHT22;7588;62.368;25.902;2022-07-05T09:08:10;26.30;72.90
14985;DHT22;7588;62.368;25.902;2022-07-05T09:10:40;26.20;73.40
14985;DHT22;7588;62.368;25.902;2022-07-05T09:13:07;26.10;74.40
14985;DHT22;7588;62.368;25.902;2022-07-05T09:15:33;26.00;70.30
14985;DHT22;7588;62.368;25.902;2022-07-05T09:17:59;26.20;71.80
14985;DHT22;7588;62.368;25.902;2022-07-05T09:20:26;26.30;76.60
14985;DHT22;7588;62.368;25.902;2022-07-05T09:22:54;26.30;69.10
14985;DHT22;7588;62.368;25.902;2022-07-05T09:25:28;26.20;71.40
14985;DHT22;7588;62.368;25.902;2022-07-05T09:28:05;26.10;70.20
14985;DHT22;7588;62.368;25.902;2022-07-05T09:30:38;25.80;70.80
14985;DHT22;7588;62.368;25.902;2022-07-05T09:35:36;25.30;74.70
14985;DHT22;7588;62.368;25.902;2022-07-05T09:38:03;25.10;73.70
14985;DHT22;7588;62.368;25.902;2022-07-05T09:40:30;24.80;76.10
14985;DHT22;7588;62.368;25.902;2022-07-05T09:43:13;24.80;78.40
14985;DHT22;7588;62.368;25.902;2022-07-05T09:45:40;24.70;77.90
14985;DHT22;7588;62.368;25.902;2022-07-05T09:48:15;24.60;78.40
14985;DHT22;7588;62.368;25.902;2022-07-05T09:50:40;24.50;77.20
14985;DHT22;7588;62.368;25.902;2022-07-05T09:53:06;24.10;74.60
14985;DHT22;7588;62.368;25.902;2022-07-05T09:55:32;23.80;77.50
14985;DHT22;7588;62.368;25.902;2022-07-05T09:57:59;23.50;76.60
14985;DHT22;7588;62.368;25.902;2022-07-05T10:00:25;23.30;74.60
14985;DHT22;7588;62.368;25.902;2022-07-05T10:02:54;23.50;73.30
14985;DHT22;7588;62.368;25.902;2022-07-05T10:05:25;23.60;73.80
14985;DHT22;7588;62.368;25.902;2022-07-05T10:07:53;24.00;77.60
14985;DHT22;7588;62.368;25.902;2022-07-05T10:10:22;24.60;72.80
14985;DHT22;7588;62.368;25.902;2022-07-05T10:12:50;25.30;72.80
14985;DHT22;7588;62.368;25.902;2022-07-05T10:15:18;26.10;70.60
14985;DHT22;7588;62.368;25.902;2022-07-05T10:23:10;26.60;67.80
14985;DHT22;7588;62.368;25.902;2022-07-05T10:25:37;26.60;66.20
14985;DHT22;7588;62.368;25.902;2022-07-05T10:28:04;26.50;64.90
14985;DHT22;7588;62.368;25.902;2022-07-05T10:30:30;26.60;66.20
14985;DHT22;7588;62.368;25.902;2022-07-05T10:32:57;26.90;64.10
14985;DHT22;7588;62.368;25.902;2022-07-05T10:35:23;27.10;63.80
14985;DHT22;7588;62.368;25.902;2022-07-05T10:37:49;27.10;62.70
14985;DHT22;7588;62.368;25.902;2022-07-05T10:40:16;27.30;61.10
14985;DHT22;7588;62.368;25.902;2022-07-05T10:42:54;28.10;63.00
14985;DHT22;7588;62.368;25.902;2022-07-05T10:45:32;28.00;59.60
14985;DHT22;7588;62.368;25.902;2022-07-05T10:53:15;26.60;63.10
14985;DHT22;7588;62.368;25.902;2022-07-05T10:55:54;26.80;63.50
14985;DHT22;7588;62.368;25.902;2022-07-05T11:04:30;27.20;59.70
14985;DHT22;7588;62.368;25.902;2022-07-05T11:06:41;27.10;59.70
14985;DHT22;7588;62.368;25.902;2022-07-05T11:22:25;24.50;75.20
14985;DHT22;7588;62.368;25.902;2022-07-05T11:24:51;24.70;76.30
14985;DHT22;7588;62.368;25.902;2022-07-05T11:27:17;24.80;77.40
14985;DHT22;7588;62.368;25.902;2022-07-05T11:29:44;24.90;77.40
14985;DHT22;7588;62.368;25.902;2022-07-05T11:38:03;24.20;80.60
14985;DHT22;7588;62.368;25.902;2022-07-05T11:40:31;23.80;81.70
14985;DHT22;7588;62.368;25.902;2022-07-05T11:42:59;23.60;82.00
14985;DHT22;7588;62.368;25.902;2022-07-05T11:45:25;23.30;82.40
14985;DHT22;7588;62.368;25.902;2022-07-05T11:47:55;23.30;82.70
14985;DHT22;7588;62.368;25.902;2022-07-05T11:50:35;23.40;82.60
14985;DHT22;7588;62.368;25.902;2022-07-05T11:53:01;23.60;80.90
14985;DHT22;7588;62.368;25.902;2022-07-05T11:55:30;23.60;81.60
14985;DHT22;7588;62.368;25.902;2022-07-05T11:57:57;23.60;81.20
14985;DHT22;7588;62.368;25.902;2022-07-05T12:02:53;23.30;84.70
14985;DHT22;7588;62.368;25.902;2022-07-05T12:05:18;23.30;81.20
14985;DHT22;7588;62.368;25.902;2022-07-05T12:07:49;23.80;81.50
14985;DHT22;7588;62.368;25.902;2022-07-05T12:10:15;24.60;74.70
14985;DHT22;7588;62.368;25.902;2022-07-05T12:13:06;25.50;75.00
14985;DHT22;7588;62.368;25.902;2022-07-05T12:15:33;26.40;68.60
14985;DHT22;7588;62.368;25.902;2022-07-05T12:18:01;26.90;65.00
14985;DHT22;7588;62.368;25.902;2022-07-05T12:20:37;27.20;65.20
14985;DHT22;7588;62.368;25.902;2022-07-05T12:23:04;27.30;64.20
14985;DHT22;7588;62.368;25.902;2022-07-05T12:25:31;27.30;65.70
14985;DHT22;7588;62.368;25.902;2022-07-05T12:27:58;27.30;66.30
14985;DHT22;7588;62.368;25.902;2022-07-05T12:30:28;27.30;65.80
14985;DHT22;7588;62.368;25.902;2022-07-05T12:33:01;27.60;65.10
14985;DHT22;7588;62.368;25.902;2022-07-05T12:35:40;27.80;64.60
14985;DHT22;7588;62.368;25.902;2022-07-05T12:38:10;27.80;62.40
14985;DHT22;7588;62.368;25.902;2022-07-05T12:40:37;27.40;65.20
14985;DHT22;7588;62.368;25.902;2022-07-05T12:43:17;27.10;66.30
14985;DHT22;7588;62.368;25.902;2022-07-05T12:48:36;26.40;62.70
14985;DHT22;7588;62.368;25.902;2022-07-05T12:51:03;26.50;62.30
14985;DHT22;7588;62.368;25.902;2022-07-05T12:53:29;26.20;64.20
14985;DHT22;7588;62.368;25.902;2022-07-05T12:56:14;25.20;66.20
14985;DHT22;7588;62.368;25.902;2022-07-05T12:59:01;24.60;67.80
14985;DHT22;7588;62.368;25.902;2022-07-05T13:01:27;24.00;69.80
14985;DHT22;7588;62.368;25.902;2022-07-05T13:09:13;23.60;76.00
14985;DHT22;7588;62.368;25.902;2022-07-05T13:11:39;23.60;78.50
14985;DHT22;7588;62.368;25.902;2022-07-05T13:14:05;23.90;78.80
14985;DHT22;7588;62.368;25.902;2022-07-05T13:16:31;23.60;77.80
14985;DHT22;7588;62.368;25.902;2022-07-05T13:19:10;23.30;76.70
14985;DHT22;7588;62.368;25.902;2022-07-05T13:21:37;23.10;79.00
14985;DHT22;7588;62.368;25.902;2022-07-05T13:24:03;23.10;78.80
14985;DHT22;7588;62.368;25.902;2022-07-05T13:26:29;23.20;79.20
14985;DHT22;7588;62.368;25.902;2022-07-05T13:28:55;23.10;79.90
14985;DHT22;7588;62.368;25.902;2022-07-05T13:31:21;23.20;80.70
14985;DHT22;7588;62.368;25.902;2022-07-05T13:33:47;22.70;84.70
14985;DHT22;7588;62.368;25.902;2022-07-05T13:36:12;22.30;85.90
14985;DHT22;7588;62.368;25.902;2022-07-05T13:38:38;22.20;89.40
14985;DHT22;7588;62.368;25.902;2022-07-05T13:41:04;22.00;89.70
14985;DHT22;7588;62.368;25.902;2022-07-05T13:43:30;21.90;90.00
14985;DHT22;7588;62.368;25.902;2022-07-05T13:45:55;21.90;90.60
14985;DHT22;7588;62.368;25.902;2022-07-05T13:48:21;22.00;90.80
14985;DHT22;7588;62.368;25.902;2022-07-05T13:50:47;22.00;93.50
14985;DHT22;7588;62.368;25.902;2022-07-05T13:53:13;22.10;93.40
14985;DHT22;7588;62.368;25.902;2022-07-05T13:55:39;22.20;95.00
14985;DHT22;7588;62.368;25.902;2022-07-05T13:58:04;22.30;93.90
14985;DHT22;7588;62.368;25.902;2022-07-05T14:00:30;22.40;92.70
14985;DHT22;7588;62.368;25.902;2022-07-05T14:02:56;22.30;93.50
14985;DHT22;7588;62.368;25.902;2022-07-05T14:05:21;22.20;93.70
14985;DHT22;7588;62.368;25.902;2022-07-05T14:07:48;22.20;95.20
14985;DHT22;7588;62.368;25.902;2022-07-05T14:10:14;22.10;94.30
14985;DHT22;7588;62.368;25.902;2022-07-05T14:12:41;21.90;95.80
14985;DHT22;7588;62.368;25.902;2022-07-05T14:15:07;21.90;97.60
14985;DHT22;7588;62.368;25.902;2022-07-05T14:17:33;21.80;96.50
14985;DHT22;7588;62.368;25.902;2022-07-05T14:19:59;22.00;97.10
14985;DHT22;7588;62.368;25.902;2022-07-05T14:22:24;22.10;95.60
14985;DHT22;7588;62.368;25.902;2022-07-05T14:24:51;22.20;96.00
14985;DHT22;7588;62.368;25.902;2022-07-05T14:27:16;22.40;96.70
14985;DHT22;7588;62.368;25.902;2022-07-05T14:29:42;22.40;94.80
14985;DHT22;7588;62.368;25.902;2022-07-05T14:32:08;22.40;90.80
14985;DHT22;7588;62.368;25.902;2022-07-05T14:34:34;22.40;90.70
14985;DHT22;7588;62.368;25.902;2022-07-05T14:37:00;22.30;89.90
14985;DHT22;7588;62.368;25.902;2022-07-05T14:39:26;22.30;90.80
14985;DHT22;7588;62.368;25.902;2022-07-05T14:41:52;22.20;89.70
14985;DHT22;7588;62.368;25.902;2022-07-05T14:44:17;21.90;87.30
14985;DHT22;7588;62.368;25.902;2022-07-05T14:46:43;21.80;88.10
14985;DHT22;7588;62.368;25.902;2022-07-05T14:49:09;21.80;86.50
14985;DHT22;7588;62.368;25.902;2022-07-05T14:51:35;21.70;85.40
14985;DHT22;7588;62.368;25.902;2022-07-05T14:54:00;21.70;86.50
14985;DHT22;7588;62.368;25.902;2022-07-05T14:56:26;21.70;88.70
14985;DHT22;7588;62.368;25.902;2022-07-05T14:58:52;21.70;89.50
14985;DHT22;7588;62.368;25.902;2022-07-05T15:01:17;21.40;89.90
14985;DHT22;7588;62.368;25.902;2022-07-05T15:03:44;21.20;92.30
14985;DHT22;7588;62.368;25.902;2022-07-05T15:06:10;20.80;95.30
14985;DHT22;7588;62.368;25.902;2022-07-05T15:08:36;20.30;97.60
14985;DHT22;7588;62.368;25.902;2022-07-05T15:11:03;19.80;99.90
14985;DHT22;7588;62.368;25.902;2022-07-05T15:13:30;19.40;99.90
14985;DHT22;7588;62.368;25.902;2022-07-05T15:15:56;19.00;99.90
14985;DHT22;7588;62.368;25.902;2022-07-05T15:18:23;18.70;99.90
14985;DHT22;7588;62.368;25.902;2022-07-05T15:20:50;18.50;99.90
14985;DHT22;7588;62.368;25.902;2022-07-05T15:23:19;18.30;99.90
14985;DHT22;7588;62.368;25.902;2022-07-05T15:25:45;18.30;99.90
14985;DHT22;7588;62.368;25.902;2022-07-05T15:28:11;18.40;99.90
14985;DHT22;7588;62.368;25.902;2022-07-05T15:30:38;18.40;99.90
14985;DHT22;7588;62.368;25.902;2022-07-05T15:33:04;18.50;99.90
14985;DHT22;7588;62.368;25.902;2022-07-05T15:35:30;18.50;99.90
14985;DHT22;7588;62.368;25.902;2022-07-05T15:37:56;18.30;99.90
14985;DHT22;7588;62.368;25.902;2022-07-05T15:40:21;18.40;99.90
14985;DHT22;7588;62.368;25.902;2022-07-05T15:42:47;18.30;99.90
14985;DHT22;7588;62.368;25.902;2022-07-05T15:45:13;18.30;99.90
14985;DHT22;7588;62.368;25.902;2022-07-05T15:47:39;18.20;99.90
14985;DHT22;7588;62.368;25.902;2022-07-05T15:50:08;18.20;99.90
14985;DHT22;7588;62.368;25.902;2022-07-05T15:52:36;18.20;99.90
14985;DHT22;7588;62.368;25.902;2022-07-05T15:55:03;18.20;99.90
14985;DHT22;7588;62.368;25.902;2022-07-05T15:57:29;18.10;99.90
14985;DHT22;7588;62.368;25.902;2022-07-05T15:59:55;18.10;99.90
14985;DHT22;7588;62.368;25.902;2022-07-05T16:02:22;18.10;99.90
14985;DHT22;7588;62.368;25.902;2022-07-05T16:04:50;18.10;99.90
14985;DHT22;7588;62.368;25.902;2022-07-05T16:07:16;18.00;99.90
14985;DHT22;7588;62.368;25.902;2022-07-05T16:09:42;18.10;99.90
14985;DHT22;7588;62.368;25.902;2022-07-05T16:12:08;18.00;99.90
14985;DHT22;7588;62.368;25.902;2022-07-05T16:14:34;18.00;99.90
14985;DHT22;7588;62.368;25.902;2022-07-05T16:17:00;18.00;99.90
14985;DHT22;7588;62.368;25.902;2022-07-05T16:19:26;17.80;99.90